createdAt,value
2019-06-01T00:00:35.468Z,7.30
2019-06-01T00:02:59.961Z,7.40
2019-06-01T00:05:24.398Z,7.77
2019-06-01T00:10:29.044Z,7.50
2019-06-01T00:12:53.518Z,8.23
2019-06-01T00:17:54.615Z,8.10
2019-06-01T00:20:19.055Z,8.47
2019-06-01T00:22:43.515Z,7.30
2019-06-01T00:25:28.750Z,8.53
2019-06-01T00:30:29.817Z,8.23
2019-06-01T00:32:54.282Z,8.43
2019-06-01T00:35:18.873Z,7.47
2019-06-01T00:37:43.474Z,8.13
2019-06-01T00:43:13.427Z,8.23
2019-06-01T00:45:37.873Z,9.33
2019-06-01T00:48:02.496Z,9.77
2019-06-01T00:50:26.940Z,8.70
2019-06-01T00:52:51.477Z,8.20
2019-06-01T00:57:53.865Z,8.87
2019-06-01T01:00:43.838Z,7.93
2019-06-01T01:05:42.650Z,8.87
2019-06-01T01:10:43.202Z,8.60
2019-06-01T01:13:26.809Z,8.40
2019-06-01T01:18:27.141Z,8.70
2019-06-01T01:20:52.065Z,8.43
2019-06-01T01:23:23.628Z,8.33
2019-06-01T01:31:12.394Z,8.53
2019-06-01T01:33:32.041Z,8.53
2019-06-01T01:35:57.759Z,9.93
2019-06-01T01:38:44.310Z,9.07
2019-06-01T01:43:45.436Z,9.23
2019-06-01T01:46:09.873Z,9.50
2019-06-01T01:48:34.342Z,9.60
2019-06-01T01:50:58.776Z,9.43
2019-06-01T01:53:23.251Z,9.70
2019-06-01T01:55:47.696Z,8.60
2019-06-01T02:01:21.353Z,9.53
2019-06-01T02:03:34.956Z,10.03
2019-06-01T02:05:59.399Z,9.47
2019-06-01T02:08:23.840Z,10.33
2019-06-01T02:10:48.301Z,9.80
2019-06-01T02:13:12.806Z,9.63
2019-06-01T02:15:58.297Z,9.77
2019-06-01T02:18:22.846Z,9.67
2019-06-01T02:23:23.821Z,9.20
2019-06-01T02:25:48.292Z,9.80
2019-06-01T02:28:12.765Z,9.73
2019-06-01T02:33:13.864Z,10.07
2019-06-01T02:38:30.527Z,9.63
2019-06-01T02:40:56.910Z,9.63
2019-06-01T02:43:45.186Z,9.80
2019-06-01T02:46:09.663Z,9.70
2019-06-01T02:48:53.464Z,10.30
2019-06-01T02:54:13.495Z,9.43
2019-06-01T02:59:14.047Z,9.87
2019-06-01T03:01:38.857Z,9.93
2019-06-01T03:04:22.732Z,10.60
2019-06-01T03:07:08.826Z,10.03
2019-06-01T03:15:34.223Z,7.93
2019-06-01T03:21:18.705Z,6.97
2019-06-01T03:27:03.367Z,7.80
2019-06-01T03:32:36.704Z,8.50
2019-06-01T03:35:02.919Z,9.43
2019-06-01T03:37:50.752Z,9.13
2019-06-01T03:40:23.524Z,9.53
2019-06-01T03:42:57.066Z,9.90
2019-06-01T03:45:21.607Z,9.70
2019-06-01T03:47:46.125Z,10.57
2019-06-01T03:50:28.632Z,10.00
2019-06-01T03:52:53.089Z,10.23
2019-06-01T03:55:17.777Z,10.13
2019-06-01T03:57:42.236Z,10.70
2019-06-01T04:03:07.180Z,10.70
2019-06-01T04:05:38.182Z,10.63
2019-06-01T04:08:03.428Z,9.90
2019-06-01T04:10:53.165Z,10.70
2019-06-01T04:13:17.609Z,10.27
2019-06-01T04:15:58.358Z,10.37
2019-06-01T04:18:22.820Z,11.00
2019-06-01T04:21:04.233Z,12.17
2019-06-01T04:26:05.976Z,11.50
2019-06-01T04:28:53.066Z,12.33
2019-06-01T04:31:17.528Z,12.10
2019-06-01T04:33:42.070Z,12.53
2019-06-01T04:36:07.033Z,12.60
2019-06-01T04:38:31.492Z,12.33
2019-06-01T04:46:26.827Z,12.97
2019-06-01T04:51:27.405Z,12.40
2019-06-01T04:53:51.873Z,13.33
2019-06-01T04:56:34.639Z,12.97
2019-06-01T04:58:59.162Z,13.33
2019-06-01T05:01:23.648Z,13.83
2019-06-01T05:03:48.210Z,13.63
2019-06-01T05:06:13.432Z,13.80
2019-06-01T05:09:00.258Z,12.67
2019-06-01T05:11:24.732Z,13.47
2019-06-01T05:16:24.764Z,14.77
2019-06-01T05:18:49.249Z,14.10
2019-06-01T05:21:15.162Z,15.30
2019-06-01T05:23:45.244Z,13.77
2019-06-01T05:26:10.885Z,14.83
2019-06-01T05:28:57.408Z,15.23
2019-06-01T05:31:25.206Z,15.33
2019-06-01T05:34:11.946Z,15.60
2019-06-01T05:36:36.575Z,14.10
2019-06-01T05:39:01.024Z,14.53
2019-06-01T05:44:19.070Z,14.63
2019-06-01T05:46:43.819Z,14.90
2019-06-01T05:49:08.287Z,15.37
2019-06-01T05:51:32.887Z,14.23
2019-06-01T05:53:58.950Z,14.10
2019-06-01T05:58:59.482Z,15.70
2019-06-01T06:01:23.945Z,15.47
2019-06-01T06:06:40.957Z,15.57
2019-06-01T06:09:26.214Z,15.30
2019-06-01T06:12:07.192Z,16.20
2019-06-01T06:14:31.640Z,15.53
2019-06-01T06:16:56.170Z,15.73
2019-06-01T06:19:22.705Z,15.50
2019-06-01T06:22:08.966Z,15.40
2019-06-01T06:24:33.438Z,15.10
2019-06-01T06:26:57.891Z,15.67
2019-06-01T06:32:17.512Z,14.60
2019-06-01T06:34:41.987Z,14.30
2019-06-01T06:37:06.528Z,15.07
2019-06-01T06:39:31.016Z,14.90
2019-06-01T06:41:55.469Z,14.30
2019-06-01T06:44:20.603Z,14.77
2019-06-01T06:46:51.808Z,14.43
2019-06-01T06:49:17.077Z,13.37
2019-06-01T06:51:47.867Z,15.27
2019-06-01T06:54:14.581Z,14.63
2019-06-01T06:57:00.123Z,15.17
2019-06-01T06:59:40.983Z,14.67
2019-06-01T07:02:05.517Z,16.00
2019-06-01T07:04:30.001Z,14.97
2019-06-01T07:06:54.520Z,13.90
2019-06-01T07:09:19.951Z,14.77
2019-06-01T07:12:08.483Z,14.73
2019-06-01T07:14:32.971Z,15.40
2019-06-01T07:16:57.420Z,14.20
2019-06-01T07:19:21.920Z,13.87
2019-06-01T07:21:46.382Z,14.93
2019-06-01T07:24:10.841Z,14.77
2019-06-01T07:26:35.428Z,15.13
2019-06-01T07:31:36.266Z,14.87
2019-06-01T07:34:00.748Z,15.30
2019-06-01T07:36:26.586Z,13.77
2019-06-01T07:38:56.664Z,15.80
2019-06-01T07:41:21.118Z,14.50
2019-06-01T07:43:45.599Z,16.00
2019-06-01T07:46:10.062Z,14.67
2019-06-01T07:48:34.548Z,13.57
2019-06-01T07:50:59.000Z,12.33
2019-06-01T07:53:24.052Z,11.37
2019-06-01T07:55:55.749Z,11.30
2019-06-01T07:58:20.819Z,11.77
2019-06-01T08:00:52.070Z,11.33
2019-06-01T08:06:09.243Z,11.97
2019-06-01T08:11:32.176Z,10.77
2019-06-01T08:19:26.353Z,10.80
2019-06-01T08:24:43.599Z,9.63
2019-06-01T08:27:08.033Z,9.63
2019-06-01T08:29:32.882Z,10.00
2019-06-01T08:34:49.768Z,9.60
2019-06-01T08:37:31.432Z,9.67
2019-06-01T08:39:59.118Z,8.90
2019-06-01T08:42:47.490Z,9.50
2019-06-01T08:47:47.721Z,9.57
2019-06-01T08:53:11.809Z,9.87
2019-06-01T08:55:55.654Z,8.30
2019-06-01T08:58:20.095Z,9.10
2019-06-01T09:00:44.699Z,8.63
2019-06-01T09:03:09.143Z,9.10
2019-06-01T09:08:28.920Z,9.43
2019-06-01T09:10:53.515Z,8.00
2019-06-01T09:13:17.963Z,8.23
2019-06-01T09:15:42.506Z,8.63
2019-06-01T09:20:59.517Z,8.50
2019-06-01T09:23:23.978Z,7.03
2019-06-01T09:25:48.460Z,7.30
2019-06-01T09:28:12.973Z,7.47
2019-06-01T09:30:37.509Z,7.03
2019-06-01T09:35:52.594Z,7.33
2019-06-01T09:41:05.587Z,7.60
2019-06-01T09:43:31.095Z,7.63
2019-06-01T09:46:17.748Z,6.73
2019-06-01T09:48:42.267Z,7.73
2019-06-01T09:51:06.806Z,6.93
2019-06-01T09:53:32.616Z,6.03
2019-06-01T09:56:03.582Z,6.00
2019-06-01T09:58:28.220Z,5.73
2019-06-01T10:00:52.806Z,6.07
2019-06-01T10:03:17.327Z,5.10
2019-06-01T10:08:44.790Z,4.03
2019-06-01T10:16:20.703Z,5.10
2019-06-01T10:19:01.146Z,4.43
2019-06-01T10:24:18.250Z,4.43
2019-06-01T10:26:42.764Z,4.80
2019-06-01T10:31:43.244Z,4.43
2019-06-01T10:34:07.699Z,4.40
2019-06-01T10:36:32.158Z,4.30
2019-06-01T10:39:15.215Z,4.03
2019-06-01T10:44:38.913Z,4.47
2019-06-01T10:47:00.409Z,4.03
2019-06-01T10:49:24.853Z,3.60
2019-06-01T10:51:49.387Z,3.47
2019-06-01T10:54:13.819Z,3.83
2019-06-01T10:56:54.960Z,3.30
2019-06-01T10:59:19.428Z,3.90
2019-06-01T11:01:43.905Z,3.90
2019-06-01T11:04:08.509Z,3.97
2019-06-01T11:09:28.349Z,3.47
2019-06-01T11:14:28.733Z,3.43
2019-06-01T11:17:09.781Z,2.93
2019-06-01T11:19:35.259Z,3.43
2019-06-01T11:22:06.027Z,2.80
2019-06-01T11:27:06.619Z,2.90
2019-06-01T11:29:31.066Z,2.50
2019-06-01T11:32:11.618Z,2.87
2019-06-01T11:34:36.483Z,2.50
2019-06-01T11:37:26.105Z,3.10
2019-06-01T11:39:50.643Z,2.20
2019-06-01T11:42:15.090Z,2.57
2019-06-01T11:44:40.704Z,2.73
2019-06-01T11:47:27.201Z,2.60
2019-06-01T11:49:51.647Z,2.30
2019-06-01T11:52:16.120Z,2.60
2019-06-01T11:57:16.753Z,2.80
2019-06-01T12:02:17.621Z,2.40
2019-06-01T12:07:37.680Z,2.07
2019-06-01T12:10:02.291Z,2.20
2019-06-01T12:12:26.735Z,2.00
2019-06-01T12:14:51.221Z,2.30
2019-06-01T12:17:15.668Z,2.40
2019-06-01T12:19:40.770Z,2.10
2019-06-01T12:22:31.963Z,2.43
2019-06-01T12:27:49.351Z,1.70
2019-06-01T12:33:08.602Z,2.03
2019-06-01T12:35:49.637Z,2.00
2019-06-01T12:38:14.083Z,2.20
2019-06-01T12:40:39.135Z,2.10
2019-06-01T12:43:10.417Z,2.20
2019-06-01T12:45:34.887Z,1.90
2019-06-01T12:50:35.820Z,1.80
2019-06-01T12:53:00.260Z,1.97
2019-06-01T12:55:24.790Z,1.90
2019-06-01T12:57:49.421Z,1.70
2019-06-01T13:03:05.219Z,1.90
2019-06-01T13:05:43.670Z,1.43
2019-06-01T13:13:36.554Z,1.60
2019-06-01T13:16:01.036Z,1.60
2019-06-01T13:18:25.489Z,1.72
2019-06-01T13:20:49.965Z,1.87
2019-06-01T13:23:14.486Z,2.08
2019-06-01T13:25:38.943Z,1.83
2019-06-01T13:28:03.388Z,1.90
2019-06-01T13:30:27.942Z,1.80
2019-06-01T13:32:52.843Z,1.63
2019-06-01T13:35:42.258Z,1.77
2019-06-01T13:43:20.030Z,1.82
2019-06-01T13:48:36.609Z,1.70
2019-06-01T13:51:01.137Z,1.40
2019-06-01T13:53:25.667Z,1.50
2019-06-01T13:55:50.584Z,1.60
2019-06-01T14:01:14.943Z,1.62
2019-06-01T14:06:33.796Z,1.42
2019-06-01T14:08:58.339Z,1.50
2019-06-01T14:11:22.895Z,1.92
2019-06-01T14:16:41.350Z,1.75
2019-06-01T14:19:07.091Z,1.90
2019-06-01T14:21:37.289Z,1.80
2019-06-01T14:24:02.008Z,1.75
2019-06-01T14:26:26.496Z,1.72
2019-06-01T14:29:14.694Z,1.87
2019-06-01T14:31:57.119Z,1.80
2019-06-01T14:37:16.217Z,1.60
2019-06-01T14:45:11.521Z,2.00
2019-06-01T14:47:36.012Z,1.50
2019-06-01T14:50:00.445Z,1.60
2019-06-01T14:52:24.984Z,1.65
2019-06-01T14:54:49.673Z,1.70
2019-06-01T14:57:33.527Z,2.30
2019-06-01T14:59:58.251Z,1.70
2019-06-01T15:02:22.718Z,1.65
2019-06-01T15:04:48.297Z,1.62
2019-06-01T15:10:10.889Z,1.70
2019-06-01T15:12:35.415Z,1.45
2019-06-01T15:14:59.878Z,1.40
2019-06-01T15:17:24.412Z,1.32
2019-06-01T15:22:44.668Z,1.72
2019-06-01T15:25:09.446Z,1.40
2019-06-01T15:27:33.934Z,1.50
2019-06-01T15:29:59.003Z,1.40
2019-06-01T15:32:46.155Z,1.45
2019-06-01T15:35:31.392Z,1.80
2019-06-01T15:40:32.480Z,1.52
2019-06-01T15:42:57.347Z,1.60
2019-06-01T15:45:47.345Z,1.50
2019-06-01T15:48:11.808Z,1.50
2019-06-01T15:50:36.268Z,1.67
2019-06-01T15:53:01.372Z,1.42
2019-06-01T15:55:52.138Z,1.70
2019-06-01T15:58:16.787Z,1.40
2019-06-01T16:00:41.311Z,1.40
2019-06-01T16:03:05.937Z,1.50
2019-06-01T16:05:30.389Z,1.70
2019-06-01T16:07:55.175Z,1.60
2019-06-01T16:15:31.850Z,2.10
2019-06-01T16:17:56.342Z,1.47
2019-06-01T16:20:27.147Z,1.50
2019-06-01T16:22:51.594Z,1.80
2019-06-01T16:25:38.959Z,1.80
2019-06-01T16:30:24.514Z,1.75
2019-06-01T16:32:48.940Z,1.67
2019-06-01T16:37:53.063Z,1.40
2019-06-01T16:43:17.799Z,1.70
2019-06-01T16:45:42.339Z,1.85
2019-06-01T16:48:06.796Z,1.67
2019-06-01T16:50:31.408Z,1.70
2019-06-01T16:52:55.989Z,1.60
2019-06-01T16:55:20.456Z,1.82
2019-06-01T16:57:44.969Z,2.00
2019-06-01T17:00:30.210Z,1.93
2019-06-01T17:02:54.795Z,1.77
2019-06-01T17:05:19.362Z,2.00
2019-06-01T17:07:43.921Z,2.10
2019-06-01T17:13:08.940Z,3.30
2019-06-01T17:18:15.456Z,1.90
2019-06-01T17:20:59.305Z,2.17
2019-06-01T17:23:27.287Z,2.20
2019-06-01T17:25:55.949Z,2.83
2019-06-01T17:28:20.464Z,2.00
2019-06-01T17:31:02.297Z,2.72
2019-06-01T17:33:26.893Z,2.83
2019-06-01T17:35:51.369Z,2.12
2019-06-01T17:38:15.953Z,2.50
2019-06-01T17:40:43.155Z,1.90
2019-06-01T17:43:28.707Z,2.33
2019-06-01T17:45:53.249Z,1.87
2019-06-01T17:48:39.551Z,2.27
2019-06-01T17:54:08.339Z,2.10
2019-06-01T17:56:32.929Z,1.90
2019-06-01T17:58:57.458Z,2.27
2019-06-01T18:01:42.123Z,2.00
2019-06-01T18:07:09.989Z,2.35
2019-06-01T18:09:34.637Z,2.63
2019-06-01T18:11:59.113Z,2.75
2019-06-01T18:14:23.629Z,3.55
2019-06-01T18:16:48.247Z,3.20
2019-06-01T18:19:12.834Z,3.40
2019-06-01T18:21:37.358Z,2.70
2019-06-01T18:24:03.388Z,3.07
2019-06-01T18:26:49.839Z,2.63
2019-06-01T18:29:14.417Z,3.50
2019-06-01T18:31:38.970Z,2.27
2019-06-01T18:34:03.550Z,3.10
2019-06-01T18:36:28.083Z,3.27
2019-06-01T18:38:52.613Z,2.60
2019-06-01T18:41:20.003Z,2.40
2019-06-01T18:44:07.773Z,2.77
2019-06-01T18:46:32.279Z,2.90
2019-06-01T18:48:56.744Z,2.50
2019-06-01T18:51:21.225Z,2.10
2019-06-01T18:53:45.679Z,2.83
2019-06-01T18:56:10.263Z,2.90
2019-06-01T18:58:51.281Z,2.43
2019-06-01T19:01:20.606Z,2.53
2019-06-01T19:03:47.442Z,3.50
2019-06-01T19:06:12.010Z,3.80
2019-06-01T19:08:36.518Z,4.23
2019-06-01T19:11:01.073Z,2.13
2019-06-01T19:13:25.575Z,2.70
2019-06-01T19:15:50.049Z,2.67
2019-06-01T19:18:14.705Z,2.67
2019-06-01T19:21:02.571Z,3.20
2019-06-01T19:23:47.822Z,2.40
2019-06-01T19:26:14.869Z,3.60
2019-06-01T19:29:00.224Z,3.07
2019-06-01T19:31:24.691Z,2.80
2019-06-01T19:34:06.873Z,2.30
2019-06-01T19:39:50.871Z,2.90
2019-06-01T19:42:15.631Z,2.70
2019-06-01T19:44:40.167Z,2.90
2019-06-01T19:47:04.703Z,2.67
2019-06-01T19:49:29.144Z,2.30
2019-06-01T19:51:53.601Z,3.00
2019-06-01T19:54:19.027Z,3.37
2019-06-01T19:56:49.728Z,4.37
2019-06-01T19:59:14.239Z,4.50
2019-06-01T20:01:54.932Z,3.97
2019-06-01T20:04:19.366Z,4.30
2019-06-01T20:07:01.797Z,3.60
2019-06-01T20:09:26.245Z,3.30
2019-06-01T20:12:01.507Z,2.97
2019-06-01T20:14:22.588Z,3.07
2019-06-01T20:17:12.108Z,3.47
2019-06-01T20:19:36.605Z,3.60
2019-06-01T20:22:01.124Z,4.40
2019-06-01T20:24:25.628Z,4.77
2019-06-01T20:26:50.082Z,5.07
2019-06-01T20:29:15.579Z,4.57
2019-06-01T20:32:02.876Z,3.97
2019-06-01T20:34:27.340Z,5.40
2019-06-01T20:36:51.788Z,5.63
2019-06-01T20:39:16.296Z,4.40
2019-06-01T20:41:40.672Z,5.70
2019-06-01T20:44:25.940Z,4.20
2019-06-01T20:46:50.389Z,4.60
2019-06-01T20:49:31.102Z,4.13
2019-06-01T20:54:48.431Z,4.30
2019-06-01T21:00:07.641Z,3.77
2019-06-01T21:02:32.264Z,4.50
2019-06-01T21:04:56.802Z,4.33
2019-06-01T21:07:21.965Z,4.70
2019-06-01T21:09:53.084Z,3.83
2019-06-01T21:12:18.455Z,4.17
2019-06-01T21:15:07.012Z,4.20
2019-06-01T21:20:29.983Z,5.40
2019-06-01T21:22:54.109Z,5.13
2019-06-01T21:27:54.588Z,5.40
2019-06-01T21:33:11.821Z,4.93
2019-06-01T21:35:36.327Z,5.77
2019-06-01T21:38:00.877Z,5.27
2019-06-01T21:40:25.730Z,4.90
2019-06-01T21:43:06.793Z,5.40
2019-06-01T21:45:28.117Z,4.50
2019-06-01T21:47:52.647Z,4.80
2019-06-01T21:50:18.184Z,4.70
2019-06-01T21:53:04.837Z,4.50
2019-06-01T21:58:06.006Z,4.23
2019-06-01T22:00:51.337Z,4.53
2019-06-01T22:03:16.816Z,5.10
2019-06-01T22:06:06.456Z,4.53
2019-06-01T22:08:30.899Z,4.23
2019-06-01T22:10:55.463Z,4.03
2019-06-01T22:15:55.841Z,4.80
2019-06-01T22:18:21.392Z,4.37
2019-06-01T22:20:52.187Z,5.10
2019-06-01T22:23:17.950Z,4.63
2019-06-01T22:28:24.522Z,4.90
2019-06-01T22:30:55.409Z,5.60
2019-06-01T22:33:21.449Z,5.37
2019-06-01T22:36:07.987Z,5.20
2019-06-01T22:41:08.630Z,4.90
2019-06-01T22:46:08.854Z,5.77
2019-06-01T22:51:09.559Z,5.90
2019-06-01T22:56:29.441Z,5.23
2019-06-01T22:58:53.934Z,5.13
2019-06-01T23:03:54.885Z,5.50
2019-06-01T23:06:19.441Z,5.37
2019-06-01T23:08:44.169Z,5.60
2019-06-01T23:14:03.820Z,5.63
2019-06-01T23:16:28.302Z,5.70
2019-06-01T23:18:52.818Z,5.17
2019-06-01T23:26:30.334Z,5.23
2019-06-01T23:31:32.327Z,5.20
2019-06-01T23:34:22.335Z,5.70
2019-06-01T23:39:22.723Z,5.53
2019-06-01T23:41:54.475Z,6.07
2019-06-01T23:44:35.293Z,5.67
2019-06-01T23:49:52.490Z,5.70
2019-06-01T23:52:17.046Z,5.53
2019-06-01T23:54:41.495Z,5.60
2019-06-01T23:57:06.045Z,5.47
